Time;durP1;ratioP1;P1;durP2;ratioP2;P2;SDS_P1;SDS_P2;PMS_P1;PMS_P2;Temp;Humidity;BMP_temperature;BMP_pressure;BME280_temperature;BME280_humidity;BME280_pressure;Samples;Min_cycle;Max_cycle;Signal;HPM_P1;HPM_P2
2023/11/25 00:00:50;;;;;;;0.50;0.50;;;;;;;3.71;76.44;97819.06;5055031;28;20091;-73
2023/11/25 00:03:19;;;;;;;1.20;1.17;;;;;;;3.80;76.34;97830.78;5054829;28;20048;-74
2023/11/25 00:05:49;;;;;;;1.58;1.45;;;;;;;3.80;76.07;97826.59;5054693;28;20491;-73
2023/11/25 00:08:20;;;;;;;0.50;0.50;;;;;;;3.74;76.42;97811.47;5070414;28;20041;-74
2023/11/25 00:10:49;;;;;;;0.55;0.55;;;;;;;3.72;77.07;97825.78;5055073;28;20045;-73
2023/11/25 00:13:20;;;;;;;0.70;0.70;;;;;;;3.73;77.14;97830.00;5054696;28;20037;-73
2023/11/25 00:15:49;;;;;;;0.45;0.45;;;;;;;3.70;77.43;97822.44;5053810;28;20106;-73
2023/11/25 00:18:18;;;;;;;0.50;0.50;;;;;;;3.65;77.36;97816.56;5054612;28;20119;-73
2023/11/25 00:20:47;;;;;;;;;;;;;;;3.70;77.38;97817.38;5055376;28;20033;-72
2023/11/25 00:23:17;;;;;;;0.70;0.70;;;;;;;3.70;77.13;97809.81;5054458;28;20387;-74
2023/11/25 00:25:48;;;;;;;0.60;0.60;;;;;;;3.67;77.20;97809.00;5054758;28;20045;-73
2023/11/25 00:28:17;;;;;;;0.30;0.30;;;;;;;3.66;77.62;97817.41;5054267;28;20045;-73
2023/11/25 00:30:46;;;;;;;0.60;0.60;;;;;;;3.62;78.10;97820.78;5054433;28;20116;-73
2023/11/25 00:33:15;;;;;;;0.40;0.40;;;;;;;3.62;77.95;97820.78;5053513;28;20466;-73
2023/11/25 00:35:44;;;;;;;0.50;0.50;;;;;;;3.60;78.16;97812.41;5053068;28;20048;-73
2023/11/25 00:38:13;;;;;;;1.73;1.63;;;;;;;3.59;77.94;97824.16;5054239;28;20091;-73
2023/11/25 00:40:42;;;;;;;0.60;0.60;;;;;;;3.53;78.41;97806.50;5054499;28;20294;-73
2023/11/25 00:43:12;;;;;;;0.60;0.60;;;;;;;3.59;78.24;97809.03;5054110;28;20041;-73
2023/11/25 00:45:42;;;;;;;0.80;0.80;;;;;;;3.61;78.53;97814.91;5053025;28;20041;-73
2023/11/25 00:48:12;;;;;;;;;;;;;;;3.60;78.87;97805.66;5054385;28;20048;-74
2023/11/25 00:50:41;;;;;;;0.73;0.73;;;;;;;3.58;78.99;97798.94;5052858;28;19920;-73
2023/11/25 00:53:10;;;;;;;3.83;1.70;;;;;;;3.53;78.86;97798.94;5052764;28;20037;-73
2023/11/25 00:55:39;;;;;;;0.60;0.60;;;;;;;3.49;78.99;97794.78;5053882;28;20368;-73
2023/11/25 00:58:07;;;;;;;1.17;1.13;;;;;;;3.39;79.32;97793.13;5052609;28;20044;-74
2023/11/25 01:00:38;;;;;;;0.40;0.40;;;;;;;3.36;79.24;97783.03;5052952;28;20513;-74
2023/11/25 01:03:07;;;;;;;0.45;0.45;;;;;;;3.28;79.90;97777.19;5054136;28;20465;-73
2023/11/25 01:05:36;;;;;;;1.23;1.13;;;;;;;3.27;79.48;97783.06;5052563;28;20049;-73
2023/11/25 01:08:05;;;;;;;1.02;0.90;;;;;;;3.24;80.17;97783.91;5052430;28;20050;-73
2023/11/25 01:10:35;;;;;;;2.55;1.55;;;;;;;3.20;79.94;97786.44;5052476;28;20048;-73
2023/11/25 01:13:05;;;;;;;0.65;0.65;;;;;;;3.13;80.08;97777.22;5054034;28;20084;-73
2023/11/25 01:15:34;;;;;;;0.43;0.43;;;;;;;3.10;80.51;97774.72;5052500;28;20044;-73
2023/11/25 01:18:05;;;;;;;0.50;0.50;;;;;;;3.14;80.67;97771.34;5053911;28;20053;-73
2023/11/25 01:20:35;;;;;;;0.30;0.30;;;;;;;3.16;80.18;97757.06;5053584;28;20491;-73
2023/11/25 01:23:04;;;;;;;0.45;0.45;;;;;;;3.20;79.47;97768.81;5053641;28;20066;-73
2023/11/25 01:25:32;;;;;;;0.50;0.50;;;;;;;3.16;79.29;97752.88;5053497;28;20073;-73
2023/11/25 01:28:01;;;;;;;0.45;0.45;;;;;;;3.19;78.84;97757.06;5053558;28;20065;-73
2023/11/25 01:30:30;;;;;;;0.60;0.60;;;;;;;3.21;78.72;97753.69;5052160;28;20063;-73
2023/11/25 01:33:00;;;;;;;0.40;0.40;;;;;;;3.24;79.10;97750.31;5053936;28;20036;-73
2023/11/25 01:35:30;;;;;;;3.63;0.70;;;;;;;3.24;78.19;97740.22;5053701;28;20513;-73
2023/11/25 01:37:59;;;;;;;0.40;0.40;;;;;;;3.28;78.62;97757.03;5052216;28;20506;-73
2023/11/25 01:40:28;;;;;;;0.40;0.40;;;;;;;3.24;78.10;97743.59;5052321;28;20041;-73
2023/11/25 01:42:57;;;;;;;0.45;0.45;;;;;;;3.21;78.26;97753.69;5053345;28;20137;-73
2023/11/25 01:45:26;;;;;;;0.60;0.60;;;;;;;3.16;78.34;97734.38;5052176;28;20384;-73
2023/11/25 01:47:56;;;;;;;0.40;0.40;;;;;;;3.22;77.91;97744.44;5053883;28;20053;-74
2023/11/25 01:50:27;;;;;;;0.40;0.40;;;;;;;3.27;78.00;97745.25;5053444;28;20144;-73
2023/11/25 01:52:58;;;;;;;0.35;0.35;;;;;;;3.21;77.56;97712.53;5035985;28;20053;-73
2023/11/25 01:55:28;;;;;;;0.40;0.40;;;;;;;3.30;77.29;97735.19;5053072;28;20049;-73
2023/11/25 01:57:57;;;;;;;;;;;;;;;3.35;77.02;97730.97;5053574;28;20057;-73
2023/11/25 02:00:28;;;;;;;0.47;0.47;;;;;;;3.33;76.82;97735.19;5053482;28;19955;-73
2023/11/25 02:02:58;;;;;;;0.50;0.50;;;;;;;3.30;77.36;97740.22;5053730;28;20053;-73
2023/11/25 02:05:28;;;;;;;0.50;0.50;;;;;;;3.18;77.32;97732.69;5052266;28;20053;-73
2023/11/25 02:07:58;;;;;;;0.50;0.50;;;;;;;3.18;77.48;97735.22;5053247;28;20043;-73
2023/11/25 02:10:28;;;;;;;0.45;0.45;;;;;;;3.09;77.30;97717.63;5053256;28;20388;-73
2023/11/25 02:12:57;;;;;;;0.50;0.50;;;;;;;3.22;77.95;97734.34;5052169;28;20514;-73
2023/11/25 02:15:26;;;;;;;1.38;1.30;;;;;;;3.23;78.17;97736.03;5052203;28;20063;-73
2023/11/25 02:17:56;;;;;;;0.50;0.50;;;;;;;3.20;78.19;97720.94;5053389;28;20041;-73
2023/11/25 02:20:31;;;;;;;0.40;0.40;;;;;;;3.21;78.57;97722.63;5051795;28;20049;-74
2023/11/25 02:23:02;;;;;;;0.22;0.22;;;;;;;3.26;78.16;97725.97;5051893;28;20052;-74
2023/11/25 02:25:32;;;;;;;0.30;0.30;;;;;;;3.17;78.28;97703.28;5053260;28;20075;-74
2023/11/25 02:28:02;;;;;;;0.40;0.40;;;;;;;3.27;78.45;97722.56;5052979;28;20072;-73
2023/11/25 02:30:31;;;;;;;1.08;1.08;;;;;;;3.25;77.92;97721.75;5051812;28;20087;-73
2023/11/25 02:33:00;;;;;;;0.70;0.70;;;;;;;3.25;78.43;97724.28;5051900;28;20067;-74
2023/11/25 02:35:29;;;;;;;0.50;0.50;;;;;;;3.27;78.57;97727.63;5052812;28;20067;-73
2023/11/25 02:37:58;;;;;;;0.50;0.50;;;;;;;3.27;78.06;97727.63;5052893;28;20057;-73
2023/11/25 02:40:28;;;;;;;0.47;0.47;;;;;;;3.20;77.88;97711.69;5056759;28;20553;-73
2023/11/25 02:42:57;;;;;;;0.40;0.40;;;;;;;3.21;78.65;97722.63;5056543;28;20060;-73
2023/11/25 02:45:27;;;;;;;0.40;0.40;;;;;;;3.16;78.92;97720.13;5056390;28;20124;-73
2023/11/25 02:47:57;;;;;;;0.50;0.50;;;;;;;3.13;78.92;97726.84;5056949;28;20558;-73
2023/11/25 02:50:27;;;;;;;0.40;0.40;;;;;;;3.04;79.00;97721.81;5056555;28;20041;-73
2023/11/25 02:52:56;;;;;;;0.20;0.20;;;;;;;2.90;78.97;97705.91;5055068;28;20047;-73
2023/11/25 02:55:25;;;;;;;0.30;0.30;;;;;;;3.01;79.53;97726.88;4582599;28;20049;-73
2023/11/25 02:57:56;;;;;;;0.50;0.50;;;;;;;3.03;79.79;97727.69;5056247;28;20053;-73
2023/11/25 03:00:29;;;;;;;0.70;0.70;;;;;;;3.02;79.53;97726.03;5054950;28;20041;-73
2023/11/25 03:03:07;;;;;;;0.80;0.80;;;;;;;3.04;79.53;97729.38;5056399;28;20064;-73
2023/11/25 03:05:38;;;;;;;0.60;0.60;;;;;;;2.96;79.77;97724.34;5056408;28;20454;-73
2023/11/25 03:08:09;;;;;;;0.50;0.50;;;;;;;3.01;79.72;97734.41;5055974;28;20079;-73
2023/11/25 03:10:46;;;;;;;0.38;0.38;;;;;;;2.98;79.21;97734.41;5056117;28;20110;-74
2023/11/25 03:13:17;;;;;;;0.40;0.40;;;;;;;3.06;79.19;97747.84;5055873;28;20045;-73
2023/11/25 03:15:46;;;;;;;0.30;0.30;;;;;;;3.09;79.29;97751.22;5055847;28;20072;-73
2023/11/25 03:18:15;;;;;;;0.52;0.52;;;;;;;3.10;79.33;97754.53;5055717;28;20115;-73
2023/11/25 03:20:44;;;;;;;0.40;0.40;;;;;;;3.10;79.60;97744.47;5055821;28;20118;-72
2023/11/25 03:23:13;;;;;;;0.40;0.40;;;;;;;3.14;79.08;97751.19;5055627;28;20064;-73
2023/11/25 03:25:42;;;;;;;0.40;0.40;;;;;;;3.15;79.64;97753.69;5055672;28;20045;-73
2023/11/25 03:28:11;;;;;;;0.60;0.60;;;;;;;3.15;79.04;97742.78;5054517;28;20045;-73
2023/11/25 03:30:41;;;;;;;0.50;0.50;;;;;;;3.09;78.92;97735.25;5054292;28;20041;-73
2023/11/25 03:33:10;;;;;;;0.50;0.50;;;;;;;3.17;79.10;97756.22;5055397;28;20053;-73
2023/11/25 03:35:39;;;;;;;0.40;0.40;;;;;;;3.16;78.75;97759.59;5055873;28;20041;-74
2023/11/25 03:38:09;;;;;;;0.38;0.38;;;;;;;3.08;78.76;97764.63;5055530;28;20044;-74
2023/11/25 03:40:37;;;;;;;0.40;0.40;;;;;;;2.82;79.09;97737.81;5054165;28;20056;-74
2023/11/25 03:43:06;;;;;;;0.60;0.60;;;;;;;2.92;79.04;97769.72;5054090;28;20411;-73
2023/11/25 03:45:36;;;;;;;0.50;0.50;;;;;;;2.86;79.43;97769.72;5054452;28;20406;-74
2023/11/25 03:48:08;;;;;;;0.50;0.50;;;;;;;2.81;79.64;97766.38;5055161;28;20124;-73
2023/11/25 03:50:37;;;;;;;0.40;0.40;;;;;;;2.78;80.75;97763.84;5052955;28;20041;-72
2023/11/25 03:53:06;;;;;;;0.60;0.60;;;;;;;2.81;80.77;97776.47;5053753;28;20041;-73
2023/11/25 03:55:35;;;;;;;0.40;0.40;;;;;;;2.65;80.17;97746.25;5054689;28;20053;-73
2023/11/25 03:58:04;;;;;;;2.40;1.23;;;;;;;2.78;80.67;97764.69;5054932;28;20044;-74
2023/11/25 04:00:33;;;;;;;0.50;0.50;;;;;;;2.86;80.45;97774.75;5054957;28;20068;-73
2023/11/25 04:03:03;;;;;;;0.40;0.40;;;;;;;2.82;80.82;97778.13;5054098;28;20499;-73
2023/11/25 04:05:33;;;;;;;0.40;0.40;;;;;;;2.85;80.90;97785.69;5054664;28;20053;-73
2023/11/25 04:08:02;;;;;;;0.60;0.60;;;;;;;2.81;80.98;97781.50;5054763;28;20122;-74
2023/11/25 04:10:31;;;;;;;1.25;0.88;;;;;;;2.86;80.71;97784.81;5054498;28;20037;-73
2023/11/25 04:13:00;;;;;;;1.02;1.02;;;;;;;2.85;81.03;97793.22;5054227;28;20056;-73
2023/11/25 04:15:29;;;;;;;0.30;0.30;;;;;;;2.82;80.54;97785.66;5053266;28;20041;-73
2023/11/25 04:17:58;;;;;;;0.43;0.43;;;;;;;2.81;80.85;97786.53;5053319;28;20037;-73
2023/11/25 04:20:29;;;;;;;0.55;0.55;;;;;;;2.74;81.23;97795.75;5054483;28;20041;-73
2023/11/25 04:23:05;;;;;;;0.60;0.60;;;;;;;2.70;81.39;97794.94;5053546;28;20057;-73
2023/11/25 04:25:36;;;;;;;0.32;0.32;;;;;;;2.69;80.98;97798.25;5053151;28;20098;-73
2023/11/25 04:28:06;;;;;;;0.50;0.50;;;;;;;2.68;82.14;97796.59;5054548;28;20553;-72
2023/11/25 04:30:36;;;;;;;2.00;1.42;;;;;;;2.69;81.88;97798.25;5054473;28;20483;-73
2023/11/25 04:33:09;;;;;;;1.27;1.20;;;;;;;2.70;82.45;97799.97;5054158;28;20037;-73
2023/11/25 04:35:38;;;;;;;0.68;0.68;;;;;;;2.63;81.95;97788.22;5054129;28;20072;-73
2023/11/25 04:38:10;;;;;;;0.82;0.82;;;;;;;2.68;82.56;97801.66;5054200;28;20083;-73
2023/11/25 04:40:39;;;;;;;0.50;0.50;;;;;;;2.67;81.91;97805.00;5053621;28;20140;-73
2023/11/25 04:43:08;;;;;;;0.50;0.50;;;;;;;2.59;82.39;97786.50;5054024;28;20132;-73
2023/11/25 04:45:38;;;;;;;0.50;0.50;;;;;;;2.59;82.89;97794.06;5053960;28;20053;-73
2023/11/25 04:48:08;;;;;;;0.50;0.50;;;;;;;2.58;82.81;97794.94;5053883;28;20049;-74
2023/11/25 04:50:37;;;;;;;0.40;0.40;;;;;;;2.62;83.52;97798.25;5053834;28;20513;-74
2023/11/25 04:53:05;;;;;;;0.50;0.50;;;;;;;2.60;83.19;97793.25;5054180;28;20108;-73
2023/11/25 04:55:36;;;;;;;0.50;0.50;;;;;;;2.60;83.58;97795.75;5053902;28;20057;-73
2023/11/25 04:58:05;;;;;;;0.55;0.55;;;;;;;2.62;83.45;97794.06;5053873;28;20309;-73
2023/11/25 05:00:35;;;;;;;0.47;0.47;;;;;;;2.60;83.39;97793.25;5053774;28;20029;-73
2023/11/25 05:03:05;;;;;;;0.50;0.50;;;;;;;2.59;83.48;97796.59;5053732;28;20053;-73
2023/11/25 05:05:37;;;;;;;0.85;0.77;;;;;;;2.57;83.69;97793.22;5054118;28;20460;-74
2023/11/25 05:08:07;;;;;;;0.40;0.40;;;;;;;2.50;84.00;97805.81;5054820;28;20068;-74
2023/11/25 05:10:37;;;;;;;0.45;0.45;;;;;;;2.48;83.98;97808.34;5053481;28;20045;-73
2023/11/25 05:13:06;;;;;;;0.63;0.63;;;;;;;2.42;83.79;97805.84;5053485;28;20048;-72
2023/11/25 05:15:36;;;;;;;4.47;2.33;;;;;;;2.31;83.67;97807.47;5053352;28;20057;-73
2023/11/25 05:18:05;;;;;;;;;;;;;;;2.28;83.67;97816.72;5053894;28;20045;-73
2023/11/25 05:20:34;;;;;;;0.50;0.50;;;;;;;2.32;83.98;97814.19;5053504;28;19921;-73
2023/11/25 05:23:03;;;;;;;1.35;1.23;;;;;;;2.33;83.34;97818.38;5053490;28;20033;-73
2023/11/25 05:25:37;;;;;;;5.20;1.38;;;;;;;2.43;84.13;97816.72;5053716;28;20053;-72
2023/11/25 05:28:07;;;;;;;0.40;0.40;;;;;;;2.52;84.39;97820.06;5053638;28;20402;-73
2023/11/25 05:30:36;;;;;;;0.50;0.50;;;;;;;2.64;83.70;97820.09;5053362;28;20094;-73
2023/11/25 05:33:05;;;;;;;0.60;0.60;;;;;;;2.63;84.08;97828.50;5053296;28;20032;-73
2023/11/25 05:35:34;;;;;;;2.83;1.67;;;;;;;2.65;84.31;97821.78;5053223;28;20033;-74
2023/11/25 05:38:04;;;;;;;2.33;1.90;;;;;;;2.55;84.04;97820.09;5053172;28;20067;-73
2023/11/25 05:40:33;;;;;;;0.57;0.57;;;;;;;2.52;83.54;97820.06;5053196;28;20060;-74
2023/11/25 05:43:06;;;;;;;0.45;0.45;;;;;;;2.50;84.42;97829.31;5053246;28;20072;-73
2023/11/25 05:45:40;;;;;;;0.50;0.50;;;;;;;2.56;84.05;97831.84;5035544;28;20049;-73
2023/11/25 05:48:09;;;;;;;0.75;0.75;;;;;;;2.51;84.44;97838.56;5053636;28;20452;-73
2023/11/25 05:50:38;;;;;;;0.40;0.40;;;;;;;2.52;84.38;97837.69;5053165;28;20052;-73
2023/11/25 05:53:07;;;;;;;0.50;0.50;;;;;;;2.55;84.07;97847.78;5053363;28;20128;-74
2023/11/25 05:55:36;;;;;;;0.65;0.65;;;;;;;2.60;84.68;97843.59;5053000;28;20043;-73
2023/11/25 05:58:06;;;;;;;0.50;0.50;;;;;;;2.58;83.83;97849.47;5053420;28;20033;-73
2023/11/25 06:00:35;;;;;;;0.40;0.40;;;;;;;2.51;84.43;97843.59;5053094;28;20462;-74
2023/11/25 06:03:05;;;;;;;0.45;0.45;;;;;;;2.50;83.87;97841.91;5053020;28;20049;-73
2023/11/25 06:05:34;;;;;;;0.30;0.30;;;;;;;2.48;84.30;97835.19;5052912;28;20044;-73
2023/11/25 06:08:03;;;;;;;1.27;1.17;;;;;;;2.42;84.18;97838.56;5052890;28;20048;-73
2023/11/25 06:10:32;;;;;;;0.50;0.50;;;;;;;2.32;84.51;97831.81;5052939;28;20282;-73
2023/11/25 06:13:00;;;;;;;0.50;0.50;;;;;;;2.39;84.62;97848.59;5054073;28;20116;-73
2023/11/25 06:15:31;;;;;;;0.80;0.80;;;;;;;2.41;84.39;97841.88;5056713;28;20277;-73
2023/11/25 06:17:59;;;;;;;0.60;0.60;;;;;;;2.37;84.76;97815.06;5057079;28;20045;-73
2023/11/25 06:20:29;;;;;;;1.20;1.17;;;;;;;2.63;84.95;97852.81;5056665;28;20162;-73
2023/11/25 06:22:58;;;;;;;4.20;1.23;;;;;;;2.68;84.06;97844.44;5056657;28;20335;-74
2023/11/25 06:25:27;;;;;;;1.10;1.05;;;;;;;2.78;84.14;97852.00;5056530;28;20057;-74
2023/11/25 06:27:56;;;;;;;0.45;0.45;;;;;;;2.83;84.77;97850.31;5056906;28;20037;-73
2023/11/25 06:30:24;;;;;;;0.50;0.50;;;;;;;2.85;84.12;97853.69;5056808;28;20041;-74
2023/11/25 06:32:55;;;;;;;0.60;0.60;;;;;;;2.88;83.96;97854.50;5056406;28;20040;-74
2023/11/25 06:35:25;;;;;;;1.63;0.85;;;;;;;2.92;83.82;97855.34;5056443;28;20048;-73
2023/11/25 06:37:54;;;;;;;0.50;0.50;;;;;;;2.95;84.04;97865.44;5056442;28;20045;-74
2023/11/25 06:40:24;;;;;;;0.50;0.50;;;;;;;2.96;83.50;97872.13;5056454;28;20029;-74
2023/11/25 06:42:53;;;;;;;0.30;0.30;;;;;;;2.95;83.50;97875.53;5056639;28;20529;-74
2023/11/25 06:45:22;;;;;;;;;;;;;;;2.95;83.21;97878.03;5056733;28;20045;-73
2023/11/25 06:47:51;;;;;;;0.40;0.40;;;;;;;2.93;83.34;97882.25;5056328;28;19920;-74
2023/11/25 06:50:22;;;;;;;0.40;0.40;;;;;;;2.90;83.54;97879.72;5056306;28;20049;-74
2023/11/25 06:52:51;;;;;;;0.65;0.65;;;;;;;2.90;83.46;97887.28;5056290;28;20314;-73
2023/11/25 06:55:20;;;;;;;0.40;0.40;;;;;;;2.93;84.41;97890.63;5055983;28;20568;-73
2023/11/25 06:57:49;;;;;;;0.50;0.50;;;;;;;2.94;84.07;97899.00;5056165;28;20049;-73
2023/11/25 07:00:18;;;;;;;0.47;0.47;;;;;;;2.85;84.54;97881.38;5056304;28;20391;-73
2023/11/25 07:02:48;;;;;;;0.50;0.50;;;;;;;2.94;84.86;97904.06;5056977;28;20037;-74
2023/11/25 07:05:17;;;;;;;0.63;0.60;;;;;;;2.94;84.33;97896.50;5056059;28;20073;-73
2023/11/25 07:07:47;;;;;;;0.50;0.50;;;;;;;2.90;84.89;97897.34;5056369;28;20033;-72
2023/11/25 07:10:16;;;;;;;0.70;0.70;;;;;;;2.88;84.69;97894.00;5056275;28;20123;-73
2023/11/25 07:12:45;;;;;;;0.40;0.40;;;;;;;2.85;84.86;97904.06;5056101;28;20048;-74
2023/11/25 07:15:14;;;;;;;0.45;0.45;;;;;;;2.89;84.84;97901.53;5054480;28;20141;-73
2023/11/25 07:17:43;;;;;;;0.73;0.73;;;;;;;2.89;85.58;97900.69;5055636;28;20491;-73
2023/11/25 07:20:18;;;;;;;0.57;0.57;;;;;;;2.93;85.05;97903.22;5055690;28;20087;-73
2023/11/25 07:22:48;;;;;;;0.40;0.40;;;;;;;2.81;85.24;97882.22;5055699;28;20403;-73
2023/11/25 07:25:18;;;;;;;0.50;0.50;;;;;;;2.91;85.36;97904.03;5055856;28;20570;-72
2023/11/25 07:27:47;;;;;;;;;;;;;;;2.94;85.62;97904.91;5054645;28;20056;-73
2023/11/25 07:30:16;;;;;;;0.75;0.75;;;;;;;2.96;85.42;97912.44;5055431;28;20375;-73
2023/11/25 07:32:45;;;;;;;;;;;;;;;2.97;86.28;97915.00;5055736;28;20044;-72
2023/11/25 07:35:14;;;;;;;0.70;0.70;;;;;;;3.01;85.80;97913.28;5048677;28;19921;-73
2023/11/25 07:37:43;;;;;;;0.50;0.50;;;;;;;3.12;85.93;97924.22;5042226;28;20034;-72
2023/11/25 07:40:14;;;;;;;0.93;0.93;;;;;;;3.07;86.26;97921.69;5036432;28;20130;-73
2023/11/25 07:42:48;;;;;;;1.50;1.00;;;;;;;3.18;85.65;97924.22;5048632;28;20096;-72
2023/11/25 07:45:18;;;;;;;0.47;0.47;;;;;;;3.22;86.16;97936.81;5055252;28;20072;-73
2023/11/25 07:47:47;;;;;;;3.28;2.58;;;;;;;3.20;85.89;97942.69;5055892;28;20491;-72
2023/11/25 07:50:17;;;;;;;0.77;0.77;;;;;;;3.15;86.29;97955.28;5055109;28;20500;-72
2023/11/25 07:52:47;;;;;;;0.57;0.57;;;;;;;3.15;86.07;97955.28;5055147;28;20051;-71
2023/11/25 07:55:18;;;;;;;0.40;0.40;;;;;;;3.16;85.80;97958.66;5054841;28;20056;-73
2023/11/25 07:57:48;;;;;;;1.50;1.42;;;;;;;2.95;85.67;97936.78;5055221;28;20048;-75
2023/11/25 08:00:19;;;;;;;0.47;0.47;;;;;;;2.99;85.57;97972.91;5055215;28;20076;-75
2023/11/25 08:02:48;;;;;;;0.90;0.90;;;;;;;2.89;86.31;97986.31;5055059;28;20061;-74
2023/11/25 08:05:22;;;;;;;0.80;0.80;;;;;;;2.82;86.32;97995.56;5055175;28;20041;-73
2023/11/25 08:07:54;;;;;;;0.40;0.40;;;;;;;2.81;86.26;97993.06;5053966;28;20082;-72
2023/11/25 08:10:31;;;;;;;0.40;0.40;;;;;;;2.71;86.02;97977.88;5054813;28;20045;-71
2023/11/25 08:13:01;;;;;;;0.43;0.43;;;;;;;2.85;86.45;97977.09;5054870;28;20441;-71
2023/11/25 08:15:30;;;;;;;0.40;0.40;;;;;;;2.95;86.77;97974.56;5054648;28;20033;-70
2023/11/25 08:17:59;;;;;;;;;;;;;;;3.05;85.84;97975.44;5055350;28;20123;-72
2023/11/25 08:20:28;;;;;;;0.60;0.60;;;;;;;3.09;86.33;97974.63;5054917;28;19926;-71
2023/11/25 08:22:57;;;;;;;0.43;0.43;;;;;;;3.18;85.64;97982.19;5055358;28;20463;-71
2023/11/25 08:25:27;;;;;;;0.88;0.88;;;;;;;3.13;85.54;97956.97;5053467;28;20045;-71
2023/11/25 08:27:56;;;;;;;0.40;0.40;;;;;;;3.30;84.76;97980.50;5054637;28;20045;-71
2023/11/25 08:30:25;;;;;;;0.80;0.80;;;;;;;3.29;84.88;97988.06;5054430;28;20087;-71
2023/11/25 08:32:54;;;;;;;0.47;0.47;;;;;;;3.34;83.92;97999.00;5055368;28;20618;-71
2023/11/25 08:35:22;;;;;;;0.32;0.32;;;;;;;3.35;83.79;98008.25;5053975;28;20332;-72
2023/11/25 08:37:51;;;;;;;0.63;0.63;;;;;;;3.21;82.54;98004.88;5054482;28;20041;-72
2023/11/25 08:40:21;;;;;;;0.30;0.30;;;;;;;3.22;81.25;98021.66;5054877;28;20090;-72
2023/11/25 08:42:52;;;;;;;0.70;0.70;;;;;;;3.23;81.07;98023.34;5054421;28;20601;-71
2023/11/25 08:45:21;;;;;;;0.50;0.50;;;;;;;3.23;80.19;98035.97;5054428;28;20556;-70
2023/11/25 08:47:49;;;;;;;0.20;0.20;;;;;;;3.24;79.79;98035.94;5054317;28;20128;-72
2023/11/25 08:50:19;;;;;;;0.47;0.47;;;;;;;3.32;79.57;98048.56;5054088;28;20102;-72
2023/11/25 08:52:48;;;;;;;2.05;1.85;;;;;;;3.33;79.34;98052.78;5053849;28;20051;-73
2023/11/25 08:55:19;;;;;;;0.68;0.68;;;;;;;3.34;79.52;98051.94;5054222;28;20056;-72
2023/11/25 08:57:53;;;;;;;0.90;0.90;;;;;;;3.42;78.95;98050.25;5054285;28;20075;-72
2023/11/25 09:00:22;;;;;;;0.80;0.80;;;;;;;3.43;79.02;98046.91;5054200;28;20049;-71
2023/11/25 09:02:53;;;;;;;0.87;0.87;;;;;;;3.46;78.93;98054.47;5053836;28;20041;-72
2023/11/25 09:05:22;;;;;;;0.50;0.50;;;;;;;3.47;78.38;98065.41;5053839;28;20052;-73
2023/11/25 09:07:54;;;;;;;0.40;0.40;;;;;;;3.50;78.44;98068.78;5054128;28;20128;-71
2023/11/25 09:10:26;;;;;;;2.47;1.42;;;;;;;3.46;78.11;98077.16;5048564;28;20044;-71
2023/11/25 09:12:57;;;;;;;1.52;1.25;;;;;;;3.42;77.01;98075.47;5053550;28;20098;-71
2023/11/25 09:15:25;;;;;;;0.63;0.63;;;;;;;3.41;77.17;98078.81;5052758;28;20068;-71
2023/11/25 09:17:54;;;;;;;1.70;1.60;;;;;;;3.38;76.67;98096.50;5053564;28;20127;-71
2023/11/25 09:20:23;;;;;;;0.60;0.60;;;;;;;3.35;76.08;98094.81;5053621;28;20037;-71
2023/11/25 09:22:52;;;;;;;5.43;1.03;;;;;;;3.30;75.78;98098.16;5053462;28;20037;-72
2023/11/25 09:25:21;;;;;;;0.35;0.35;;;;;;;3.24;75.63;98100.63;5053569;28;20079;-71
2023/11/25 09:27:52;;;;;;;0.95;0.95;;;;;;;3.23;75.00;98104.00;5053537;28;20068;-71
2023/11/25 09:30:23;;;;;;;0.68;0.68;;;;;;;3.24;74.63;98103.16;5053682;28;20045;-70
2023/11/25 09:32:53;;;;;;;0.77;0.77;;;;;;;3.23;74.66;98098.97;5053665;28;20127;-72
2023/11/25 09:35:22;;;;;;;0.50;0.50;;;;;;;3.28;74.71;98108.22;5053529;28;20432;-72
2023/11/25 09:37:51;;;;;;;0.50;0.50;;;;;;;3.30;74.33;98109.06;5053496;28;20120;-72
2023/11/25 09:40:20;;;;;;;0.82;0.82;;;;;;;3.37;73.82;98112.44;5053605;28;20099;-72
2023/11/25 09:42:49;;;;;;;0.43;0.43;;;;;;;3.43;73.59;98106.59;5053911;28;20064;-72
2023/11/25 09:45:21;;;;;;;0.65;0.65;;;;;;;3.45;73.42;98113.31;5053193;28;20041;-71
2023/11/25 09:47:52;;;;;;;0.60;0.60;;;;;;;3.50;72.50;98116.69;5054456;28;20045;-72
2023/11/25 09:50:21;;;;;;;0.85;0.85;;;;;;;3.55;72.29;98114.97;5057756;28;20450;-72
2023/11/25 09:52:52;;;;;;;1.00;1.00;;;;;;;3.60;71.71;98104.94;5057286;28;20041;-72
2023/11/25 09:55:23;;;;;;;0.43;0.43;;;;;;;3.65;71.24;98110.78;5057156;28;20052;-72
2023/11/25 09:58:00;;;;;;;0.50;0.50;;;;;;;3.74;71.00;98106.59;5057832;28;20045;-73
2023/11/25 10:00:30;;;;;;;0.32;0.32;;;;;;;3.89;70.57;98104.09;5057203;28;20495;-73
2023/11/25 10:03:02;;;;;;;0.55;0.55;;;;;;;4.03;70.40;98102.41;5057746;28;20067;-73
2023/11/25 10:05:31;;;;;;;0.65;0.65;;;;;;;4.31;69.60;98104.91;5057389;28;20049;-74
2023/11/25 10:08:01;;;;;;;0.70;0.70;;;;;;;4.49;68.72;98097.28;5057095;28;20106;-74
2023/11/25 10:10:30;;;;;;;0.40;0.40;;;;;;;4.64;67.84;98100.63;5057441;28;20063;-73
2023/11/25 10:13:00;;;;;;;0.30;0.30;;;;;;;4.64;67.46;98082.09;5057269;28;20037;-74
2023/11/25 10:15:29;;;;;;;0.20;0.20;;;;;;;4.85;67.02;98107.28;5056824;28;20385;-74
2023/11/25 10:17:58;;;;;;;0.30;0.30;;;;;;;4.91;66.54;98094.66;5057121;28;20395;-74
2023/11/25 10:20:30;;;;;;;0.32;0.32;;;;;;;4.93;66.48;98105.59;5048111;28;20033;-74
2023/11/25 10:22:59;;;;;;;0.30;0.30;;;;;;;4.86;65.61;98098.03;5037118;28;20523;-73
2023/11/25 10:25:28;;;;;;;0.70;0.70;;;;;;;4.67;64.34;98103.16;5035822;28;20037;-73
2023/11/25 10:27:57;;;;;;;;;;;;;;;4.74;64.25;98098.91;5037413;28;20128;-72
2023/11/25 10:30:28;;;;;;;0.40;0.40;;;;;;;4.87;64.02;98100.53;5036776;28;19928;-73
2023/11/25 10:33:01;;;;;;;0.40;0.40;;;;;;;4.93;63.74;98080.31;5036519;28;20041;-74
2023/11/25 10:35:35;;;;;;;0.40;0.40;;;;;;;5.17;63.13;98102.94;5035772;28;20037;-73
2023/11/25 10:38:06;;;;;;;0.50;0.50;;;;;;;5.26;61.97;98085.19;5036815;28;20056;-73
2023/11/25 10:40:35;;;;;;;0.60;0.60;;;;;;;5.35;61.35;98099.50;5036658;28;20112;-74
2023/11/25 10:43:04;;;;;;;0.32;0.32;;;;;;;5.58;61.80;98091.75;5036582;28;20045;-75
2023/11/25 10:45:33;;;;;;;0.50;0.50;;;;;;;5.68;61.05;98093.38;5036463;28;20037;-74
2023/11/25 10:48:04;;;;;;;0.73;0.73;;;;;;;5.86;60.83;98103.38;5036423;28;20092;-72
2023/11/25 10:50:34;;;;;;;0.40;0.40;;;;;;;5.86;60.69;98100.84;5036890;28;20068;-73
2023/11/25 10:53:06;;;;;;;0.43;0.43;;;;;;;5.89;59.81;98118.56;5036641;28;20385;-74
2023/11/25 10:55:38;;;;;;;0.40;0.40;;;;;;;6.14;60.26;98109.91;5036010;28;20126;-74
2023/11/25 10:58:09;;;;;;;0.30;0.30;;;;;;;6.23;58.59;98111.53;5036248;28;20049;-75
2023/11/25 11:00:38;;;;;;;0.98;0.98;;;;;;;6.27;58.65;98115.69;5036165;28;20523;-75
2023/11/25 11:03:10;;;;;;;0.40;0.40;;;;;;;6.33;57.69;98103.84;5036472;28;20487;-77
2023/11/25 11:05:46;;;;;;;0.30;0.30;;;;;;;6.16;56.91;98110.75;5036053;28;20060;-76
2023/11/25 11:08:22;;;;;;;0.93;0.93;;;;;;;6.30;56.84;98100.47;5036423;28;20159;-76
2023/11/25 11:10:56;;;;;;;0.30;0.30;;;;;;;6.34;56.10;98102.13;5036437;28;20049;-75
2023/11/25 11:13:31;;;;;;;0.38;0.38;;;;;;;6.38;55.00;98104.59;5034546;28;20049;-76
2023/11/25 11:16:07;;;;;;;0.20;0.20;;;;;;;6.42;55.39;98101.22;5036186;28;20081;-75
2023/11/25 11:18:41;;;;;;;0.85;0.50;;;;;;;6.66;54.70;98103.50;5036085;28;20060;-74
2023/11/25 11:21:16;;;;;;;0.50;0.50;;;;;;;6.63;54.53;98105.22;5034489;28;20041;-75
2023/11/25 11:23:45;;;;;;;0.85;0.60;;;;;;;6.66;54.53;98107.72;5036087;28;20056;-74
2023/11/25 11:26:27;;;;;;;0.93;0.65;;;;;;;6.27;54.56;98091.22;5036013;28;20057;-74
2023/11/25 11:29:10;;;;;;;1.60;0.82;;;;;;;6.15;54.77;98103.13;5036527;28;20045;-70
2023/11/25 11:31:58;;;;;;;0.30;0.30;;;;;;;6.13;55.04;98120.03;5035614;28;20080;-74
2023/11/25 11:34:28;;;;;;;0.22;0.22;;;;;;;6.02;54.92;98107.50;5035332;28;20046;-72
2023/11/25 11:37:03;;;;;;;0.30;0.30;;;;;;;5.93;55.35;98126.09;5035642;28;20052;-75
2023/11/25 11:39:33;;;;;;;0.30;0.30;;;;;;;5.69;55.12;98118.66;5035482;28;20049;-73
2023/11/25 11:42:29;;;;;;;0.40;0.40;;;;;;;5.55;56.21;98112.00;5034298;28;20049;-71
2023/11/25 11:45:11;;;;;;;0.30;0.30;;;;;;;5.61;56.69;98111.97;5028383;28;20099;-74
2023/11/25 11:47:41;;;;;;;0.30;0.30;;;;;;;5.59;57.89;98118.75;5035295;28;20054;-75
2023/11/25 11:50:10;;;;;;;0.20;0.20;;;;;;;5.67;58.21;98122.03;5035259;28;20037;-74
2023/11/25 11:53:16;;;;;;;0.40;0.40;;;;;;;5.77;58.76;98123.66;5035210;28;20045;-75
2023/11/25 11:55:52;;;;;;;0.32;0.32;;;;;;;5.97;59.80;98126.94;5146110;23;20053;-77
2023/11/25 11:58:22;;;;;;;0.60;0.60;;;;;;;5.92;60.01;98132.03;5043165;28;20500;-75